Time;durP1;ratioP1;P1;durP2;ratioP2;P2;SDS_P1;SDS_P2;PMS_P1;PMS_P2;Temp;Humidity;BMP_temperature;BMP_pressure;BME280_temperature;BME280_humidity;BME280_pressure;Samples;Min_cycle;Max_cycle;Signal;HPM_P1;HPM_P2
2023/05/17 00:00:28;;;;;;;4.47;2.00;;;;;;;;;;10398788;28;20054;-77
2023/05/17 00:05:36;;;;;;;4.80;2.00;;;;;;;;;;10402787;28;20518;-79
2023/05/17 00:10:40;;;;;;;5.85;2.17;;;;;;;;;;10399209;28;20366;-79
2023/05/17 00:15:50;;;;;;;3.33;1.75;;;;;;;;;;10401128;28;20717;-78
2023/05/17 00:20:56;;;;;;;3.63;1.90;;;;;;;;;;10392638;28;20045;-79
2023/05/17 00:26:05;;;;;;;5.03;2.20;;;;;;;;;;10398332;28;20045;-79
2023/05/17 00:31:25;;;;;;;4.07;1.80;;;;;;;;;;10391433;28;20121;-79
2023/05/17 00:36:41;;;;;;;5.15;2.03;;;;;;;;;;10392401;28;20050;-78
2023/05/17 00:41:57;;;;;;;3.83;1.67;;;;;;;;;;10375524;28;20091;-79
2023/05/17 00:47:21;;;;;;;4.38;1.90;;;;;;;;;;10407924;28;20044;-77
2023/05/17 00:52:26;;;;;;;5.10;1.98;;;;;;;;;;10392938;28;20510;-77
2023/05/17 00:57:32;;;;;;;7.07;2.05;;;;;;;;;;10392452;28;20516;-77
2023/05/17 01:03:00;;;;;;;6.05;1.75;;;;;;;;;;10395364;28;20060;-80
2023/05/17 01:08:22;;;;;;;6.40;2.08;;;;;;;;;;10416222;28;20661;-79
2023/05/17 01:13:42;;;;;;;6.72;1.80;;;;;;;;;;10397694;28;20148;-77
2023/05/17 01:18:58;;;;;;;4.43;1.90;;;;;;;;;;10400764;28;20041;-78
2023/05/17 01:24:14;;;;;;;4.45;2.13;;;;;;;;;;10407289;28;20108;-78
2023/05/17 01:29:22;;;;;;;3.85;2.05;;;;;;;;;;10385137;28;20063;-78
2023/05/17 01:34:28;;;;;;;3.22;2.03;;;;;;;;;;10404381;28;20132;-79
2023/05/17 01:39:36;;;;;;;7.15;2.13;;;;;;;;;;10399749;28;20462;-78
2023/05/17 01:50:14;;;;;;;6.78;2.20;;;;;;;;;;10398538;28;20148;-77
2023/05/17 01:55:33;;;;;;;;;;;;;;;;;;10397680;28;20498;-77
2023/05/17 02:00:44;;;;;;;5.07;2.13;;;;;;;;;;10395601;28;19949;-78
2023/05/17 02:05:53;;;;;;;7.07;2.93;;;;;;;;;;10413779;28;20049;-78
2023/05/17 02:11:04;;;;;;;3.33;2.22;;;;;;;;;;10398036;28;20104;-78
2023/05/17 02:16:12;;;;;;;7.57;2.60;;;;;;;;;;10398675;28;20041;-79
2023/05/17 02:21:27;;;;;;;7.03;2.65;;;;;;;;;;10398957;28;20614;-79
2023/05/17 02:26:36;;;;;;;7.82;2.88;;;;;;;;;;10399841;28;20130;-78
2023/05/17 02:31:52;;;;;;;9.73;2.90;;;;;;;;;;10399627;28;20059;-78
2023/05/17 02:37:05;;;;;;;8.23;2.72;;;;;;;;;;10075968;28;9287214;-78
2023/05/17 02:42:16;;;;;;;3.35;2.50;;;;;;;;;;10395765;28;20215;-79
2023/05/17 02:47:27;;;;;;;6.65;2.38;;;;;;;;;;10402699;28;20053;-77
2023/05/17 02:52:54;;;;;;;4.05;1.95;;;;;;;;;;10404894;28;20041;-78
2023/05/17 02:58:03;;;;;;;6.68;2.35;;;;;;;;;;10403449;28;20105;-76
2023/05/17 03:03:17;;;;;;;4.30;2.08;;;;;;;;;;10400687;28;20190;-79
2023/05/17 03:08:40;;;;;;;8.85;2.17;;;;;;;;;;10399874;28;20077;-79
2023/05/17 03:13:50;;;;;;;3.88;2.00;;;;;;;;;;10401664;28;20061;-77
2023/05/17 03:18:55;;;;;;;3.67;2.13;;;;;;;;;;10396880;28;20600;-80
2023/05/17 03:24:08;;;;;;;4.28;2.13;;;;;;;;;;10397205;28;20069;-78
2023/05/17 03:34:42;;;;;;;10.63;2.35;;;;;;;;;;10399260;28;20050;-77
2023/05/17 03:39:57;;;;;;;6.57;2.17;;;;;;;;;;10400252;28;20068;-78
2023/05/17 03:45:15;;;;;;;2.50;1.80;;;;;;;;;;10381865;28;20489;-77
2023/05/17 03:50:21;;;;;;;3.60;1.70;;;;;;;;;;10398316;28;20068;-78
2023/05/17 03:55:31;;;;;;;4.72;1.52;;;;;;;;;;10400543;28;20076;-78
2023/05/17 04:00:40;;;;;;;4.45;1.73;;;;;;;;;;10397974;28;20079;-77
2023/05/17 04:05:50;;;;;;;5.47;1.90;;;;;;;;;;10398703;28;20568;-78
2023/05/17 04:11:08;;;;;;;4.32;1.55;;;;;;;;;;10398585;28;20038;-78
2023/05/17 04:16:16;;;;;;;4.28;1.40;;;;;;;;;;10398967;28;20045;-78
2023/05/17 04:32:08;;;;;;;5.82;1.70;;;;;;;;;;10396923;28;20053;-78
2023/05/17 04:42:42;;;;;;;4.10;1.70;;;;;;;;;;10388332;28;20499;-78
2023/05/17 04:47:49;;;;;;;3.80;1.60;;;;;;;;;;10395824;28;20556;-77
2023/05/17 04:52:54;;;;;;;3.72;1.45;;;;;;;;;;10397544;28;20136;-78
2023/05/17 04:58:01;;;;;;;3.35;1.30;;;;;;;;;;10377647;28;20429;-77
2023/05/17 05:03:09;;;;;;;4.30;1.50;;;;;;;;;;10394808;28;20045;-77
2023/05/17 05:08:15;;;;;;;2.70;1.65;;;;;;;;;;10395163;28;20065;-77
2023/05/17 05:13:23;;;;;;;4.50;1.30;;;;;;;;;;10410489;28;20149;-78
2023/05/17 05:18:29;;;;;;;5.65;1.60;;;;;;;;;;10391498;28;20053;-78
2023/05/17 05:23:51;;;;;;;1.77;1.20;;;;;;;;;;10397684;28;20053;-77
2023/05/17 05:29:08;;;;;;;2.85;1.58;;;;;;;;;;10395847;28;20048;-80
2023/05/17 05:34:15;;;;;;;3.60;1.33;;;;;;;;;;10392837;28;20054;-78
2023/05/17 05:39:21;;;;;;;3.72;1.30;;;;;;;;;;10395127;28;20140;-78
2023/05/17 05:45:01;;;;;;;3.40;1.38;;;;;;;;;;10392430;28;20403;-79
2023/05/17 05:50:43;;;;;;;2.10;1.20;;;;;;;;;;10383714;28;20042;-80
2023/05/17 05:55:51;;;;;;;6.95;1.73;;;;;;;;;;10402277;28;20041;-79
2023/05/17 06:01:14;;;;;;;2.42;1.20;;;;;;;;;;10402976;28;20045;-80
2023/05/17 06:06:23;;;;;;;5.25;1.30;;;;;;;;;;10403647;28;20061;-78
2023/05/17 06:11:31;;;;;;;4.63;1.48;;;;;;;;;;10403695;28;20042;-78
2023/05/17 06:16:40;;;;;;;2.83;1.20;;;;;;;;;;10416449;28;20047;-81
2023/05/17 06:21:53;;;;;;;2.95;1.60;;;;;;;;;;10399826;28;20614;-80
2023/05/17 06:27:00;;;;;;;3.55;1.30;;;;;;;;;;10403968;28;20500;-78
2023/05/17 06:32:31;;;;;;;6.07;1.42;;;;;;;;;;10402352;28;20104;-78
2023/05/17 06:37:48;;;;;;;2.45;1.20;;;;;;;;;;10401206;28;20084;-78
2023/05/17 06:42:55;;;;;;;9.57;2.20;;;;;;;;;;10387793;28;20500;-79
2023/05/17 06:48:09;;;;;;;5.25;1.10;;;;;;;;;;10387488;28;20506;-78
2023/05/17 06:53:26;;;;;;;5.45;1.30;;;;;;;;;;10392935;28;20061;-78
2023/05/17 06:58:39;;;;;;;4.45;1.48;;;;;;;;;;10392394;28;20482;-77
2023/05/17 07:03:47;;;;;;;1.88;1.10;;;;;;;;;;10390350;28;20045;-78
2023/05/17 07:09:01;;;;;;;7.30;1.35;;;;;;;;;;10391922;28;20033;-78
2023/05/17 07:14:05;;;;;;;3.40;1.40;;;;;;;;;;10386073;28;20037;-77
2023/05/17 07:19:14;;;;;;;3.67;1.40;;;;;;;;;;10387553;28;20041;-79
2023/05/17 07:24:39;;;;;;;2.15;1.10;;;;;;;;;;10388147;28;20061;-79
2023/05/17 07:29:48;;;;;;;7.28;1.80;;;;;;;;;;10388625;28;20053;-77
2023/05/17 07:34:58;;;;;;;3.97;1.50;;;;;;;;;;10387205;28;20048;-77
2023/05/17 07:40:14;;;;;;;7.63;2.10;;;;;;;;;;10388911;28;20057;-78
2023/05/17 07:45:32;;;;;;;5.40;1.73;;;;;;;;;;10389016;28;20498;-79
2023/05/17 07:50:42;;;;;;;2.35;1.30;;;;;;;;;;10387307;28;20045;-79
2023/05/17 07:55:50;;;;;;;4.13;1.58;;;;;;;;;;10388834;28;20060;-78
2023/05/17 08:00:58;;;;;;;2.92;1.30;;;;;;;;;;10388872;28;20041;-78
2023/05/17 08:06:26;;;;;;;2.92;1.00;;;;;;;;;;10390069;28;20475;-79
2023/05/17 08:11:35;;;;;;;4.43;1.42;;;;;;;;;;10389699;28;20041;-79
2023/05/17 08:16:52;;;;;;;6.72;1.50;;;;;;;;;;10385089;28;20064;-78
2023/05/17 08:27:19;;;;;;;5.57;1.73;;;;;;;;;;10382018;28;19929;-79
2023/05/17 08:32:31;;;;;;;4.32;1.40;;;;;;;;;;10381224;28;20053;-78
2023/05/17 08:37:38;;;;;;;4.03;1.70;;;;;;;;;;10383573;28;20071;-80
2023/05/17 08:42:53;;;;;;;6.95;2.03;;;;;;;;;;10381649;28;20845;-80
2023/05/17 08:48:02;;;;;;;5.75;1.60;;;;;;;;;;10382225;28;20402;-79
2023/05/17 08:53:13;;;;;;;3.53;1.40;;;;;;;;;;10392265;28;20421;-79
2023/05/17 08:58:31;;;;;;;4.03;1.77;;;;;;;;;;10387770;28;20514;-80
2023/05/17 09:09:31;;;;;;;2.20;1.50;;;;;;;;;;10387385;28;20038;-81
2023/05/17 09:14:38;;;;;;;3.53;1.50;;;;;;;;;;10387660;28;20351;-81
2023/05/17 09:19:45;;;;;;;4.57;2.50;;;;;;;;;;10383979;28;20045;-79
2023/05/17 09:24:51;;;;;;;8.80;4.10;;;;;;;;;;10384069;28;20113;-80
2023/05/17 09:30:17;;;;;;;4.22;1.60;;;;;;;;;;10390006;28;20041;-81
2023/05/17 09:35:33;;;;;;;5.03;1.60;;;;;;;;;;10389465;28;20064;-79
2023/05/17 09:40:54;;;;;;;6.90;2.08;;;;;;;;;;10390545;28;20140;-79
2023/05/17 09:46:15;;;;;;;3.03;1.40;;;;;;;;;;10390498;28;20045;-79
2023/05/17 09:51:34;;;;;;;3.40;1.80;;;;;;;;;;10390197;28;20051;-80
2023/05/17 10:02:32;;;;;;;5.82;2.30;;;;;;;;;;10393465;28;20053;-80
2023/05/17 10:13:08;;;;;;;5.55;1.70;;;;;;;;;;10387707;28;20111;-80
2023/05/17 10:23:43;;;;;;;5.18;1.30;;;;;;;;;;10389865;28;20118;-80
2023/05/17 10:28:59;;;;;;;2.88;1.27;;;;;;;;;;10401147;28;20127;-80
2023/05/17 10:34:08;;;;;;;2.88;1.00;;;;;;;;;;10402430;28;20144;-80
2023/05/17 10:39:18;;;;;;;;;;;;;;;;;;10401946;28;20104;-80
2023/05/17 10:44:34;;;;;;;4.40;1.90;;;;;;;;;;10401028;28;20075;-80
2023/05/17 10:49:50;;;;;;;2.53;1.80;;;;;;;;;;10401425;28;20096;-81
2023/05/17 10:55:00;;;;;;;1.55;1.30;;;;;;;;;;10402352;28;20099;-82
2023/05/17 11:00:11;;;;;;;4.45;1.27;;;;;;;;;;10402139;28;20033;-81
2023/05/17 11:11:07;;;;;;;2.28;1.05;;;;;;;;;;10400189;28;20091;-80
2023/05/17 11:16:51;;;;;;;3.78;1.90;;;;;;;;;;10402393;28;20077;-80
2023/05/17 11:21:56;;;;;;;3.42;1.70;;;;;;;;;;10403986;28;20042;-80
2023/05/17 11:27:10;;;;;;;3.15;1.50;;;;;;;;;;10401314;28;20616;-81
2023/05/17 11:32:22;;;;;;;5.05;2.00;;;;;;;;;;10397208;28;20506;-80
2023/05/17 11:37:32;;;;;;;4.93;1.60;;;;;;;;;;10401533;28;20053;-79
2023/05/17 11:42:37;;;;;;;5.00;2.00;;;;;;;;;;10413617;28;20033;-80
2023/05/17 11:47:52;;;;;;;3.30;1.55;;;;;;;;;;10397654;28;20059;-80
2023/05/17 11:53:01;;;;;;;2.78;1.60;;;;;;;;;;10402028;28;20348;-80
2023/05/17 11:58:32;;;;;;;3.42;1.92;;;;;;;;;;10400080;28;20136;-80
2023/05/17 12:03:41;;;;;;;3.38;1.90;;;;;;;;;;10393288;28;20467;-80
2023/05/17 12:08:47;;;;;;;4.78;1.45;;;;;;;;;;10400857;28;20407;-80
2023/05/17 12:14:14;;;;;;;3.83;1.52;;;;;;;;;;10400868;28;20044;-79
2023/05/17 12:19:22;;;;;;;3.72;1.90;;;;;;;;;;10395131;28;20048;-81
2023/05/17 12:30:22;;;;;;;3.78;1.70;;;;;;;;;;10391931;28;20053;-79
2023/05/17 12:35:42;;;;;;;4.15;1.63;;;;;;;;;;10398937;28;20041;-79
2023/05/17 12:40:49;;;;;;;2.78;1.75;;;;;;;;;;10396729;28;20080;-80
2023/05/17 12:45:56;;;;;;;7.00;2.00;;;;;;;;;;10397344;28;20096;-79
2023/05/17 12:51:10;;;;;;;3.03;1.60;;;;;;;;;;10399449;28;20049;-79
2023/05/17 12:56:27;;;;;;;3.90;1.80;;;;;;;;;;10398808;28;20485;-79
2023/05/17 13:02:01;;;;;;;4.65;2.00;;;;;;;;;;10404162;28;20060;-79
2023/05/17 13:07:09;;;;;;;5.88;2.65;;;;;;;;;;10404635;28;20044;-80
2023/05/17 13:12:25;;;;;;;4.70;2.00;;;;;;;;;;10400710;28;20485;-79
2023/05/17 13:17:43;;;;;;;3.40;1.77;;;;;;;;;;10406298;28;20053;-79
2023/05/17 13:22:55;;;;;;;3.05;1.58;;;;;;;;;;10406010;28;20056;-79
2023/05/17 13:28:10;;;;;;;3.40;1.83;;;;;;;;;;10402360;28;20048;-79
2023/05/17 13:33:23;;;;;;;4.20;1.90;;;;;;;;;;10401853;28;20044;-79
2023/05/17 13:38:29;;;;;;;10.07;2.42;;;;;;;;;;10407628;28;20072;-79
2023/05/17 13:43:47;;;;;;;4.18;1.90;;;;;;;;;;10402966;28;20041;-80
2023/05/17 13:48:56;;;;;;;8.32;2.95;;;;;;;;;;10403925;28;20274;-80
2023/05/17 13:54:05;;;;;;;6.78;1.75;;;;;;;;;;10406330;28;20077;-79
2023/05/17 13:59:34;;;;;;;3.75;1.77;;;;;;;;;;10404233;28;20053;-79
2023/05/17 14:04:40;;;;;;;4.80;2.47;;;;;;;;;;10406203;28;20038;-80
2023/05/17 14:09:50;;;;;;;5.85;2.85;;;;;;;;;;10404244;28;20037;-78
2023/05/17 14:15:04;;;;;;;7.68;1.75;;;;;;;;;;10420111;28;20194;-79
2023/05/17 14:20:21;;;;;;;4.60;1.92;;;;;;;;;;10389183;28;20049;-79
2023/05/17 14:25:37;;;;;;;3.10;1.63;;;;;;;;;;10405448;28;20140;-80
2023/05/17 14:30:45;;;;;;;3.15;1.63;;;;;;;;;;10396799;28;20292;-80
2023/05/17 14:35:53;;;;;;;4.65;2.22;;;;;;;;;;10401023;28;20045;-80
2023/05/17 14:41:00;;;;;;;4.88;2.05;;;;;;;;;;10404061;28;20036;-80
2023/05/17 14:51:37;;;;;;;5.30;1.95;;;;;;;;;;10395783;28;20136;-80
2023/05/17 14:56:42;;;;;;;3.20;1.63;;;;;;;;;;10404312;28;20076;-79
2023/05/17 15:01:54;;;;;;;6.53;1.83;;;;;;;;;;10397151;28;20076;-79
2023/05/17 15:07:09;;;;;;;7.43;2.00;;;;;;;;;;10384066;28;20041;-78
2023/05/17 15:12:46;;;;;;;;;;;;;;;;;;10400853;28;20046;-83
2023/05/17 15:17:52;;;;;;;;;;;;;;;;;;10398567;28;19928;-79
2023/05/17 15:23:07;;;;;;;7.82;2.08;;;;;;;;;;10411885;28;19932;-79
2023/05/17 15:28:12;;;;;;;6.95;3.13;;;;;;;;;;10413317;28;20066;-78
2023/05/17 15:38:44;;;;;;;7.25;3.25;;;;;;;;;;10406109;28;20049;-79
2023/05/17 15:43:57;;;;;;;4.60;1.95;;;;;;;;;;10400725;28;20061;-80
2023/05/17 15:49:02;;;;;;;8.20;2.10;;;;;;;;;;10398801;28;20056;-79
2023/05/17 15:54:48;;;;;;;6.35;2.53;;;;;;;;;;10395063;28;20045;-80
2023/05/17 15:59:54;;;;;;;;;;;;;;;;;;10400213;28;20463;-77
2023/05/17 16:05:00;;;;;;;4.82;2.30;;;;;;;;;;10409687;28;19944;-79
2023/05/17 16:10:08;;;;;;;5.22;2.45;;;;;;;;;;10406931;28;20144;-78
2023/05/17 16:15:14;;;;;;;5.35;2.30;;;;;;;;;;10409675;28;20046;-77
2023/05/17 16:20:31;;;;;;;5.28;2.58;;;;;;;;;;10387810;28;20045;-78
2023/05/17 16:25:59;;;;;;;10.27;3.90;;;;;;;;;;10384794;28;20048;-77
2023/05/17 16:31:09;;;;;;;10.30;3.95;;;;;;;;;;10387184;28;20045;-80
2023/05/17 16:36:24;;;;;;;8.70;3.38;;;;;;;;;;10387971;28;20080;-79
2023/05/17 16:41:32;;;;;;;;;;;;;;;;;;10385323;28;20069;-79
2023/05/17 16:46:39;;;;;;;11.68;3.22;;;;;;;;;;10400057;28;20417;-79
2023/05/17 16:51:46;;;;;;;9.82;3.05;;;;;;;;;;10386147;28;20141;-79
2023/05/17 16:56:53;;;;;;;9.15;2.70;;;;;;;;;;10385561;28;20124;-79
2023/05/17 17:02:00;;;;;;;10.25;2.88;;;;;;;;;;10381248;28;20049;-79
2023/05/17 17:07:10;;;;;;;8.57;3.42;;;;;;;;;;10363653;28;20041;-78
2023/05/17 17:12:24;;;;;;;9.07;2.80;;;;;;;;;;10380592;28;20593;-80
2023/05/17 17:17:34;;;;;;;6.22;2.53;;;;;;;;;;10387311;28;20065;-78
2023/05/17 17:22:44;;;;;;;7.28;2.53;;;;;;;;;;10382215;28;20228;-79
2023/05/17 17:27:52;;;;;;;6.18;2.33;;;;;;;;;;10367771;28;20111;-80
2023/05/17 17:33:02;;;;;;;9.88;3.35;;;;;;;;;;10383311;28;20111;-78
2023/05/17 17:38:23;;;;;;;6.75;2.58;;;;;;;;;;10384080;28;20412;-79
2023/05/17 17:43:27;;;;;;;7.50;2.67;;;;;;;;;;10379070;28;20530;-79
2023/05/17 17:48:47;;;;;;;7.03;2.40;;;;;;;;;;10387402;28;20576;-78
2023/05/17 17:54:13;;;;;;;7.20;2.30;;;;;;;;;;10406551;28;20106;-81
2023/05/17 17:59:19;;;;;;;5.85;2.38;;;;;;;;;;10393429;28;20135;-79
2023/05/17 18:04:25;;;;;;;8.23;3.20;;;;;;;;;;10401068;28;20049;-80
2023/05/17 18:09:37;;;;;;;10.85;2.40;;;;;;;;;;10399796;28;20057;-79
2023/05/17 18:14:44;;;;;;;6.90;2.22;;;;;;;;;;10395416;28;20495;-79
2023/05/17 18:20:01;;;;;;;7.55;2.30;;;;;;;;;;10397408;28;20875;-79
2023/05/17 18:25:07;;;;;;;10.02;2.75;;;;;;;;;;10403935;28;20072;-79
2023/05/17 18:30:11;;;;;;;4.10;2.42;;;;;;;;;;10404385;28;20065;-79
2023/05/17 18:35:16;;;;;;;7.30;3.20;;;;;;;;;;10403769;28;20060;-79
2023/05/17 18:40:27;;;;;;;6.63;2.67;;;;;;;;;;10405883;28;20499;-81
2023/05/17 18:45:41;;;;;;;6.45;2.58;;;;;;;;;;10406104;28;20050;-80
2023/05/17 18:56:22;;;;;;;11.02;3.30;;;;;;;;;;10399012;28;20049;-79
2023/05/17 19:01:36;;;;;;;9.57;2.78;;;;;;;;;;10396998;28;20042;-78
2023/05/17 19:12:35;;;;;;;8.13;2.58;;;;;;;;;;10404599;28;20041;-79
2023/05/17 19:17:40;;;;;;;7.43;2.58;;;;;;;;;;10423317;28;20043;-79
2023/05/17 19:22:46;;;;;;;6.65;2.63;;;;;;;;;;10390660;28;20049;-79
2023/05/17 19:27:54;;;;;;;14.50;6.28;;;;;;;;;;10410719;28;20386;-79
2023/05/17 19:33:02;;;;;;;5.97;2.10;;;;;;;;;;10402609;28;20038;-82
2023/05/17 19:38:11;;;;;;;6.25;2.22;;;;;;;;;;10404947;28;20045;-80
2023/05/17 19:43:18;;;;;;;6.47;2.80;;;;;;;;;;10414319;28;20140;-81
2023/05/17 19:48:28;;;;;;;8.35;2.60;;;;;;;;;;10407377;28;20041;-81
2023/05/17 19:53:36;;;;;;;13.40;4.95;;;;;;;;;;10401116;28;20065;-80
2023/05/17 20:04:28;;;;;;;12.52;4.90;;;;;;;;;;10394430;28;20136;-82
2023/05/17 20:09:38;;;;;;;7.07;3.25;;;;;;;;;;10397093;28;20140;-80
2023/05/17 20:20:56;;;;;;;8.05;3.10;;;;;;;;;;10398000;28;20049;-81
2023/05/17 20:26:14;;;;;;;7.53;2.72;;;;;;;;;;10393098;28;20057;-80
2023/05/17 20:31:21;;;;;;;8.43;2.50;;;;;;;;;;10379373;28;20056;-81
2023/05/17 20:36:31;;;;;;;12.77;4.60;;;;;;;;;;10397644;28;20129;-81
2023/05/17 20:41:35;;;;;;;8.90;2.88;;;;;;;;;;10398757;28;20045;-80
2023/05/17 20:46:38;;;;;;;;;;;;;;;;;;10395130;28;20465;-81
2023/05/17 20:51:50;;;;;;;;;;;;;;;;;;10397992;28;19921;-81
2023/05/17 20:57:02;;;;;;;8.02;3.20;;;;;;;;;;10398242;28;20283;-82
2023/05/17 21:02:23;;;;;;;8.00;2.80;;;;;;;;;;10394028;28;20042;-80
2023/05/17 21:07:38;;;;;;;9.77;2.80;;;;;;;;;;10393089;28;20120;-81
2023/05/17 21:13:13;;;;;;;5.38;2.42;;;;;;;;;;10394448;28;20140;-81
2023/05/17 21:18:17;;;;;;;7.57;3.45;;;;;;;;;;10396005;28;20065;-78
2023/05/17 21:23:23;;;;;;;8.75;2.60;;;;;;;;;;10398607;28;20410;-80
2023/05/17 21:28:33;;;;;;;5.80;2.60;;;;;;;;;;10404080;28;20491;-81
2023/05/17 21:33:38;;;;;;;6.35;2.35;;;;;;;;;;10415396;28;20499;-80
2023/05/17 21:38:55;;;;;;;5.47;2.05;;;;;;;;;;10410292;28;20130;-80
2023/05/17 21:44:12;;;;;;;6.57;2.60;;;;;;;;;;10409947;28;20064;-81
2023/05/17 21:49:19;;;;;;;9.48;2.67;;;;;;;;;;10405726;28;20133;-81
2023/05/17 21:54:26;;;;;;;8.27;2.67;;;;;;;;;;10405566;28;20113;-81
2023/05/17 21:59:47;;;;;;;8.98;2.60;;;;;;;;;;10405276;28;20497;-81
2023/05/17 22:04:53;;;;;;;5.70;2.38;;;;;;;;;;10400637;28;20037;-80
2023/05/17 22:10:03;;;;;;;9.65;2.45;;;;;;;;;;10401627;28;20583;-81
2023/05/17 22:15:17;;;;;;;6.32;2.47;;;;;;;;;;10406351;28;20029;-83
2023/05/17 22:20:22;;;;;;;8.95;2.80;;;;;;;;;;10403559;28;20570;-81
2023/05/17 22:25:30;;;;;;;6.47;2.30;;;;;;;;;;10400936;28;20288;-82
2023/05/17 22:30:47;;;;;;;6.82;2.50;;;;;;;;;;10400995;28;20118;-81
2023/05/17 22:36:12;;;;;;;7.43;2.85;;;;;;;;;;10401915;28;20582;-81
2023/05/17 22:41:18;;;;;;;7.55;2.50;;;;;;;;;;10396676;28;20107;-83
2023/05/17 22:51:50;;;;;;;;;;;;;;;;;;10402978;28;20531;-83
2023/05/17 22:57:13;;;;;;;5.30;2.58;;;;;;;;;;10399200;28;19928;-84
2023/05/17 23:02:42;;;;;;;6.15;2.63;;;;;;;;;;10395803;28;20045;-83
2023/05/17 23:07:47;;;;;;;7.43;2.40;;;;;;;;;;10394451;28;20136;-83
2023/05/17 23:13:31;;;;;;;7.18;2.55;;;;;;;;;;10637396;27;20412;-81
2023/05/17 23:18:34;;;;;;;6.80;2.75;;;;;;;;;;10599544;27;20118;-80
2023/05/17 23:23:39;;;;;;;7.77;2.87;;;;;;;;;;10594973;27;20126;-80
2023/05/17 23:28:43;;;;;;;11.23;2.97;;;;;;;;;;10599000;27;20496;-83
2023/05/17 23:33:46;;;;;;;7.68;2.83;;;;;;;;;;10591755;27;20046;-84
2023/05/17 23:38:49;;;;;;;6.75;2.85;;;;;;;;;;10596773;27;20498;-84
2023/05/17 23:43:55;;;;;;;10.07;3.05;;;;;;;;;;10596351;27;20546;-84
2023/05/17 23:48:58;;;;;;;10.50;3.63;;;;;;;;;;10595574;27;20510;-84
2023/05/17 23:54:01;;;;;;;15.13;3.70;;;;;;;;;;10597348;27;20090;-83
2023/05/17 23:59:05;;;;;;;9.27;3.28;;;;;;;;;;10594147;27;20211;-83
